East Quilcene, Washington
Current Conditions -  °F | °C
As of 9:35 PM on Sunday 19 Oct 2014 (Local Time) from KPWT Reporting Station
Overcast Overcast  
Wind Chill: 59°   Ceiling: 6500
Heat Index: 59°   Visibility: 10mi
Dew Point: 55°   Wind: 9mph
Humidity: 88%   Direction: 230°SW
Pressure: 29.7"   Gusts: NA
Location:  47.8412°N, 122.841°W
Report Text: KPWT 200435Z AUTO 23008KT 10SM OVC065 15/13 A2970 RMK AO1
Loading
Personal Weather Stations






























Interactive Weather Map New forecast layout! Learn more

10-Day Weather Forecast

Advertisements
Track Severe Weather on mobile